sensor_id;sensor_type;location;lat;lon;timestamp;temperature;humidity
1347;DHT22;667;48.796;9.480;2024-03-02T00:00:23;7.60;82.70
1347;DHT22;667;48.796;9.480;2024-03-02T00:02:53;7.60;82.80
1347;DHT22;667;48.796;9.480;2024-03-02T00:05:21;7.60;82.80
1347;DHT22;667;48.796;9.480;2024-03-02T00:07:53;7.60;82.80
1347;DHT22;667;48.796;9.480;2024-03-02T00:10:21;7.60;82.90
1347;DHT22;667;48.796;9.480;2024-03-02T00:12:51;7.60;82.90
1347;DHT22;667;48.796;9.480;2024-03-02T00:15:41;7.60;82.80
1347;DHT22;667;48.796;9.480;2024-03-02T00:18:12;7.60;82.80
1347;DHT22;667;48.796;9.480;2024-03-02T00:20:38;7.60;82.80
1347;DHT22;667;48.796;9.480;2024-03-02T00:23:06;7.60;82.60
1347;DHT22;667;48.796;9.480;2024-03-02T00:26:00;7.60;82.70
1347;DHT22;667;48.796;9.480;2024-03-02T00:28:29;7.60;83.30
1347;DHT22;667;48.796;9.480;2024-03-02T00:33:26;7.60;82.90
1347;DHT22;667;48.796;9.480;2024-03-02T00:35:53;7.60;83.10
1347;DHT22;667;48.796;9.480;2024-03-02T00:38:19;7.50;83.20
1347;DHT22;667;48.796;9.480;2024-03-02T00:40:45;7.60;83.20
1347;DHT22;667;48.796;9.480;2024-03-02T00:45:58;7.60;83.50
1347;DHT22;667;48.796;9.480;2024-03-02T00:48:23;7.50;83.40
1347;DHT22;667;48.796;9.480;2024-03-02T00:50:52;7.50;83.30
1347;DHT22;667;48.796;9.480;2024-03-02T00:53:23;7.50;83.40
1347;DHT22;667;48.796;9.480;2024-03-02T00:55:50;7.60;83.50
1347;DHT22;667;48.796;9.480;2024-03-02T00:58:16;7.60;83.60
1347;DHT22;667;48.796;9.480;2024-03-02T01:00:41;7.60;83.70
1347;DHT22;667;48.796;9.480;2024-03-02T01:03:07;7.60;83.60
1347;DHT22;667;48.796;9.480;2024-03-02T01:05:33;7.60;83.50
1347;DHT22;667;48.796;9.480;2024-03-02T01:07:59;7.60;83.40
1347;DHT22;667;48.796;9.480;2024-03-02T01:10:24;7.60;83.20
1347;DHT22;667;48.796;9.480;2024-03-02T01:12:51;7.60;83.20
1347;DHT22;667;48.796;9.480;2024-03-02T01:15:17;7.60;83.00
1347;DHT22;667;48.796;9.480;2024-03-02T01:17:42;7.60;82.90
1347;DHT22;667;48.796;9.480;2024-03-02T01:20:08;7.60;83.00
1347;DHT22;667;48.796;9.480;2024-03-02T01:22:35;7.60;83.10
1347;DHT22;667;48.796;9.480;2024-03-02T01:25:01;7.60;83.10
1347;DHT22;667;48.796;9.480;2024-03-02T01:27:27;7.60;83.00
1347;DHT22;667;48.796;9.480;2024-03-02T01:29:52;7.50;83.00
1347;DHT22;667;48.796;9.480;2024-03-02T01:32:18;7.50;83.10
1347;DHT22;667;48.796;9.480;2024-03-02T01:34:43;7.50;83.20
1347;DHT22;667;48.796;9.480;2024-03-02T01:37:09;7.50;83.10
1347;DHT22;667;48.796;9.480;2024-03-02T01:39:35;7.50;83.10
1347;DHT22;667;48.796;9.480;2024-03-02T01:42:01;7.50;83.10
1347;DHT22;667;48.796;9.480;2024-03-02T01:44:27;7.50;83.10
1347;DHT22;667;48.796;9.480;2024-03-02T01:46:52;7.50;83.40
1347;DHT22;667;48.796;9.480;2024-03-02T01:49:18;7.50;83.60
1347;DHT22;667;48.796;9.480;2024-03-02T01:51:44;7.50;83.60
1347;DHT22;667;48.796;9.480;2024-03-02T01:54:09;7.50;83.50
1347;DHT22;667;48.796;9.480;2024-03-02T01:56:35;7.50;83.50
1347;DHT22;667;48.796;9.480;2024-03-02T01:59:01;7.50;83.40
1347;DHT22;667;48.796;9.480;2024-03-02T02:01:27;7.50;83.60
1347;DHT22;667;48.796;9.480;2024-03-02T02:03:52;7.50;83.80
1347;DHT22;667;48.796;9.480;2024-03-02T02:06:18;7.50;83.80
1347;DHT22;667;48.796;9.480;2024-03-02T02:08:43;7.50;83.90
1347;DHT22;667;48.796;9.480;2024-03-02T02:11:09;7.50;84.00
1347;DHT22;667;48.796;9.480;2024-03-02T02:13:35;7.50;84.10
1347;DHT22;667;48.796;9.480;2024-03-02T02:16:09;7.50;84.00
1347;DHT22;667;48.796;9.480;2024-03-02T02:18:35;7.50;84.00
1347;DHT22;667;48.796;9.480;2024-03-02T02:21:03;7.50;83.90
1347;DHT22;667;48.796;9.480;2024-03-02T02:23:29;7.60;83.90
1347;DHT22;667;48.796;9.480;2024-03-02T02:25:54;7.50;83.50
1347;DHT22;667;48.796;9.480;2024-03-02T02:28:20;7.50;83.40
1347;DHT22;667;48.796;9.480;2024-03-02T02:30:46;7.50;83.20
1347;DHT22;667;48.796;9.480;2024-03-02T02:33:11;7.50;83.10
1347;DHT22;667;48.796;9.480;2024-03-02T02:35:37;7.50;83.10
1347;DHT22;667;48.796;9.480;2024-03-02T02:38:03;7.40;83.10
1347;DHT22;667;48.796;9.480;2024-03-02T02:40:29;7.40;82.90
1347;DHT22;667;48.796;9.480;2024-03-02T02:42:57;7.40;82.90
1347;DHT22;667;48.796;9.480;2024-03-02T02:45:24;7.40;82.90
1347;DHT22;667;48.796;9.480;2024-03-02T02:47:50;7.40;82.90
1347;DHT22;667;48.796;9.480;2024-03-02T02:50:16;7.40;82.90
1347;DHT22;667;48.796;9.480;2024-03-02T02:52:42;7.40;82.80
1347;DHT22;667;48.796;9.480;2024-03-02T02:55:09;7.30;82.80
1347;DHT22;667;48.796;9.480;2024-03-02T02:57:36;7.30;83.10
1347;DHT22;667;48.796;9.480;2024-03-02T03:00:05;7.30;83.30
1347;DHT22;667;48.796;9.480;2024-03-02T03:02:36;7.30;83.20
1347;DHT22;667;48.796;9.480;2024-03-02T03:05:01;7.30;83.10
1347;DHT22;667;48.796;9.480;2024-03-02T03:07:27;7.20;82.80
1347;DHT22;667;48.796;9.480;2024-03-02T03:09:53;7.20;82.80
1347;DHT22;667;48.796;9.480;2024-03-02T03:12:18;7.20;82.70
1347;DHT22;667;48.796;9.480;2024-03-02T03:14:44;7.20;82.70
1347;DHT22;667;48.796;9.480;2024-03-02T03:17:09;7.20;82.70
1347;DHT22;667;48.796;9.480;2024-03-02T03:19:35;7.20;82.70
1347;DHT22;667;48.796;9.480;2024-03-02T03:22:01;7.20;82.70
1347;DHT22;667;48.796;9.480;2024-03-02T03:24:26;7.20;82.80
1347;DHT22;667;48.796;9.480;2024-03-02T03:26:52;7.10;82.80
1347;DHT22;667;48.796;9.480;2024-03-02T03:29:18;7.20;82.80
1347;DHT22;667;48.796;9.480;2024-03-02T03:31:43;7.10;82.50
1347;DHT22;667;48.796;9.480;2024-03-02T03:34:09;7.10;82.30
1347;DHT22;667;48.796;9.480;2024-03-02T03:36:34;7.10;82.00
1347;DHT22;667;48.796;9.480;2024-03-02T03:39:00;7.10;81.90
1347;DHT22;667;48.796;9.480;2024-03-02T03:41:27;7.00;81.90
1347;DHT22;667;48.796;9.480;2024-03-02T03:43:53;7.00;82.00
1347;DHT22;667;48.796;9.480;2024-03-02T03:46:18;7.00;82.00
1347;DHT22;667;48.796;9.480;2024-03-02T03:48:44;7.00;82.00
1347;DHT22;667;48.796;9.480;2024-03-02T03:51:09;7.00;82.00
1347;DHT22;667;48.796;9.480;2024-03-02T03:53:35;7.00;81.90
1347;DHT22;667;48.796;9.480;2024-03-02T03:56:00;6.90;81.80
1347;DHT22;667;48.796;9.480;2024-03-02T03:58:26;6.90;81.70
1347;DHT22;667;48.796;9.480;2024-03-02T04:00:51;6.90;81.80
1347;DHT22;667;48.796;9.480;2024-03-02T04:03:17;6.90;81.90
1347;DHT22;667;48.796;9.480;2024-03-02T04:05:42;6.90;81.90
1347;DHT22;667;48.796;9.480;2024-03-02T04:08:08;6.90;81.90
1347;DHT22;667;48.796;9.480;2024-03-02T04:10:33;6.90;82.50
1347;DHT22;667;48.796;9.480;2024-03-02T04:12:59;6.80;81.60
1347;DHT22;667;48.796;9.480;2024-03-02T04:15:25;6.80;81.70
1347;DHT22;667;48.796;9.480;2024-03-02T04:17:50;6.80;81.70
1347;DHT22;667;48.796;9.480;2024-03-02T04:20:16;6.80;81.60
1347;DHT22;667;48.796;9.480;2024-03-02T04:22:41;6.80;81.50
1347;DHT22;667;48.796;9.480;2024-03-02T04:25:07;6.80;81.40
1347;DHT22;667;48.796;9.480;2024-03-02T04:27:33;6.80;81.40
1347;DHT22;667;48.796;9.480;2024-03-02T04:29:59;6.70;81.30
1347;DHT22;667;48.796;9.480;2024-03-02T04:32:26;6.70;81.50
1347;DHT22;667;48.796;9.480;2024-03-02T04:34:51;6.70;81.80
1347;DHT22;667;48.796;9.480;2024-03-02T04:37:17;6.70;82.00
1347;DHT22;667;48.796;9.480;2024-03-02T04:39:43;6.70;82.10
1347;DHT22;667;48.796;9.480;2024-03-02T04:42:08;6.70;82.10
1347;DHT22;667;48.796;9.480;2024-03-02T04:44:34;6.70;82.10
1347;DHT22;667;48.796;9.480;2024-03-02T04:46:59;6.70;82.10
1347;DHT22;667;48.796;9.480;2024-03-02T04:49:25;6.70;82.20
1347;DHT22;667;48.796;9.480;2024-03-02T04:51:51;6.70;82.20
1347;DHT22;667;48.796;9.480;2024-03-02T04:54:16;6.70;82.30
1347;DHT22;667;48.796;9.480;2024-03-02T04:56:42;6.70;82.40
1347;DHT22;667;48.796;9.480;2024-03-02T04:59:15;6.70;82.60
1347;DHT22;667;48.796;9.480;2024-03-02T05:01:41;6.70;82.50
1347;DHT22;667;48.796;9.480;2024-03-02T05:04:06;6.70;82.50
1347;DHT22;667;48.796;9.480;2024-03-02T05:06:32;6.70;82.40
1347;DHT22;667;48.796;9.480;2024-03-02T05:08:57;6.70;82.50
1347;DHT22;667;48.796;9.480;2024-03-02T05:11:23;6.70;82.70
1347;DHT22;667;48.796;9.480;2024-03-02T05:14:04;6.70;82.90
1347;DHT22;667;48.796;9.480;2024-03-02T05:16:33;6.70;82.90
1347;DHT22;667;48.796;9.480;2024-03-02T05:18:59;6.70;82.90
1347;DHT22;667;48.796;9.480;2024-03-02T05:21:25;6.70;83.00
1347;DHT22;667;48.796;9.480;2024-03-02T05:23:50;6.70;82.90
1347;DHT22;667;48.796;9.480;2024-03-02T05:26:16;6.70;82.80
1347;DHT22;667;48.796;9.480;2024-03-02T05:28:42;6.70;82.80
1347;DHT22;667;48.796;9.480;2024-03-02T05:31:10;6.70;83.00
1347;DHT22;667;48.796;9.480;2024-03-02T05:33:39;6.70;83.10
1347;DHT22;667;48.796;9.480;2024-03-02T05:36:05;6.60;83.20
1347;DHT22;667;48.796;9.480;2024-03-02T05:38:32;6.60;83.50
1347;DHT22;667;48.796;9.480;2024-03-02T05:40:57;6.60;83.70
1347;DHT22;667;48.796;9.480;2024-03-02T05:43:23;6.60;83.90
1347;DHT22;667;48.796;9.480;2024-03-02T05:45:48;6.50;83.90
1347;DHT22;667;48.796;9.480;2024-03-02T05:48:14;6.50;83.90
1347;DHT22;667;48.796;9.480;2024-03-02T05:50:40;6.50;83.90
1347;DHT22;667;48.796;9.480;2024-03-02T05:53:05;6.50;83.90
1347;DHT22;667;48.796;9.480;2024-03-02T05:55:31;6.50;83.70
1347;DHT22;667;48.796;9.480;2024-03-02T05:57:57;6.50;83.60
1347;DHT22;667;48.796;9.480;2024-03-02T06:00:31;6.50;83.60
1347;DHT22;667;48.796;9.480;2024-03-02T06:02:57;6.50;83.20
1347;DHT22;667;48.796;9.480;2024-03-02T06:05:23;6.50;83.20
1347;DHT22;667;48.796;9.480;2024-03-02T06:07:49;6.40;82.90
1347;DHT22;667;48.796;9.480;2024-03-02T06:10:14;6.50;82.60
1347;DHT22;667;48.796;9.480;2024-03-02T06:12:40;6.50;82.50
1347;DHT22;667;48.796;9.480;2024-03-02T06:15:06;6.40;82.10
1347;DHT22;667;48.796;9.480;2024-03-02T06:17:32;6.40;82.00
1347;DHT22;667;48.796;9.480;2024-03-02T06:19:57;6.40;81.90
1347;DHT22;667;48.796;9.480;2024-03-02T06:22:23;6.40;81.90
1347;DHT22;667;48.796;9.480;2024-03-02T06:24:50;6.30;81.80
1347;DHT22;667;48.796;9.480;2024-03-02T06:27:16;6.30;81.80
1347;DHT22;667;48.796;9.480;2024-03-02T06:29:41;6.30;81.70
1347;DHT22;667;48.796;9.480;2024-03-02T06:32:07;6.30;81.80
1347;DHT22;667;48.796;9.480;2024-03-02T06:34:35;6.20;82.10
1347;DHT22;667;48.796;9.480;2024-03-02T06:37:01;6.20;81.80
1347;DHT22;667;48.796;9.480;2024-03-02T06:39:26;6.20;81.80
1347;DHT22;667;48.796;9.480;2024-03-02T06:41:52;6.20;81.80
1347;DHT22;667;48.796;9.480;2024-03-02T06:44:17;6.20;82.00
1347;DHT22;667;48.796;9.480;2024-03-02T06:46:43;6.20;82.20
1347;DHT22;667;48.796;9.480;2024-03-02T06:49:09;6.20;82.10
1347;DHT22;667;48.796;9.480;2024-03-02T06:51:36;6.20;82.10
1347;DHT22;667;48.796;9.480;2024-03-02T06:54:02;6.20;82.10
1347;DHT22;667;48.796;9.480;2024-03-02T06:56:27;6.20;82.20
1347;DHT22;667;48.796;9.480;2024-03-02T06:58:53;6.20;82.20
1347;DHT22;667;48.796;9.480;2024-03-02T07:01:19;6.30;82.30
1347;DHT22;667;48.796;9.480;2024-03-02T07:03:45;6.30;82.10
1347;DHT22;667;48.796;9.480;2024-03-02T07:06:11;6.30;81.90
1347;DHT22;667;48.796;9.480;2024-03-02T07:08:36;6.30;81.80
1347;DHT22;667;48.796;9.480;2024-03-02T07:11:02;6.30;81.80
1347;DHT22;667;48.796;9.480;2024-03-02T07:13:28;6.30;81.80
1347;DHT22;667;48.796;9.480;2024-03-02T07:15:54;6.30;81.80
1347;DHT22;667;48.796;9.480;2024-03-02T07:18:32;6.30;82.00
1347;DHT22;667;48.796;9.480;2024-03-02T07:20:59;6.30;82.10
1347;DHT22;667;48.796;9.480;2024-03-02T07:23:26;6.30;82.10
1347;DHT22;667;48.796;9.480;2024-03-02T07:25:56;6.30;82.20
1347;DHT22;667;48.796;9.480;2024-03-02T07:28:27;6.40;82.50
1347;DHT22;667;48.796;9.480;2024-03-02T07:31:05;6.40;82.70
1347;DHT22;667;48.796;9.480;2024-03-02T07:33:31;6.40;82.80
1347;DHT22;667;48.796;9.480;2024-03-02T07:35:57;6.50;83.00
1347;DHT22;667;48.796;9.480;2024-03-02T07:38:25;6.50;83.20
1347;DHT22;667;48.796;9.480;2024-03-02T07:40:50;6.60;83.40
1347;DHT22;667;48.796;9.480;2024-03-02T07:43:17;6.60;83.30
1347;DHT22;667;48.796;9.480;2024-03-02T07:45:43;6.70;83.70
1347;DHT22;667;48.796;9.480;2024-03-02T07:48:09;6.80;83.90
1347;DHT22;667;48.796;9.480;2024-03-02T07:50:35;6.80;84.10
1347;DHT22;667;48.796;9.480;2024-03-02T07:53:03;6.90;84.40
1347;DHT22;667;48.796;9.480;2024-03-02T07:55:29;7.00;84.70
1347;DHT22;667;48.796;9.480;2024-03-02T07:57:56;7.10;85.00
1347;DHT22;667;48.796;9.480;2024-03-02T08:00:22;7.30;85.40
1347;DHT22;667;48.796;9.480;2024-03-02T08:02:48;7.40;85.70
1347;DHT22;667;48.796;9.480;2024-03-02T08:05:14;7.50;86.20
1347;DHT22;667;48.796;9.480;2024-03-02T08:07:40;7.70;86.50
1347;DHT22;667;48.796;9.480;2024-03-02T08:10:06;7.80;86.80
1347;DHT22;667;48.796;9.480;2024-03-02T08:12:32;8.00;87.20
1347;DHT22;667;48.796;9.480;2024-03-02T08:14:58;8.10;87.20
1347;DHT22;667;48.796;9.480;2024-03-02T08:17:23;8.20;86.90
1347;DHT22;667;48.796;9.480;2024-03-02T08:19:49;8.40;86.60
1347;DHT22;667;48.796;9.480;2024-03-02T08:22:15;8.50;86.40
1347;DHT22;667;48.796;9.480;2024-03-02T08:24:41;8.60;86.40
1347;DHT22;667;48.796;9.480;2024-03-02T08:27:06;8.70;86.00
1347;DHT22;667;48.796;9.480;2024-03-02T08:29:32;8.70;85.60
1347;DHT22;667;48.796;9.480;2024-03-02T08:31:57;8.70;85.40
1347;DHT22;667;48.796;9.480;2024-03-02T08:34:23;8.80;85.30
1347;DHT22;667;48.796;9.480;2024-03-02T08:36:49;8.90;85.20
1347;DHT22;667;48.796;9.480;2024-03-02T08:39:15;8.90;84.90
1347;DHT22;667;48.796;9.480;2024-03-02T08:41:45;9.00;85.10
1347;DHT22;667;48.796;9.480;2024-03-02T08:44:11;9.10;85.40
1347;DHT22;667;48.796;9.480;2024-03-02T08:46:37;9.20;85.40
1347;DHT22;667;48.796;9.480;2024-03-02T08:49:04;9.30;85.40
1347;DHT22;667;48.796;9.480;2024-03-02T08:51:30;9.40;85.40
1347;DHT22;667;48.796;9.480;2024-03-02T08:53:56;9.50;85.30
1347;DHT22;667;48.796;9.480;2024-03-02T08:56:21;9.50;84.80
1347;DHT22;667;48.796;9.480;2024-03-02T08:58:49;9.50;84.60
1347;DHT22;667;48.796;9.480;2024-03-02T09:01:15;9.60;84.50
1347;DHT22;667;48.796;9.480;2024-03-02T09:03:41;9.60;84.40
1347;DHT22;667;48.796;9.480;2024-03-02T09:06:10;9.60;84.30
1347;DHT22;667;48.796;9.480;2024-03-02T09:08:35;9.70;84.30
1347;DHT22;667;48.796;9.480;2024-03-02T09:11:07;9.70;84.30
1347;DHT22;667;48.796;9.480;2024-03-02T09:13:33;9.80;84.50
1347;DHT22;667;48.796;9.480;2024-03-02T09:15:59;9.80;84.50
1347;DHT22;667;48.796;9.480;2024-03-02T09:18:24;9.90;84.60
1347;DHT22;667;48.796;9.480;2024-03-02T09:20:50;10.00;83.50
1347;DHT22;667;48.796;9.480;2024-03-02T09:23:15;10.10;83.80
1347;DHT22;667;48.796;9.480;2024-03-02T09:25:41;10.20;83.90
1347;DHT22;667;48.796;9.480;2024-03-02T09:28:07;10.30;84.30
1347;DHT22;667;48.796;9.480;2024-03-02T09:30:33;10.50;83.80
1347;DHT22;667;48.796;9.480;2024-03-02T09:32:58;10.60;83.00
1347;DHT22;667;48.796;9.480;2024-03-02T09:35:24;10.80;82.80
1347;DHT22;667;48.796;9.480;2024-03-02T09:37:50;11.00;82.10
1347;DHT22;667;48.796;9.480;2024-03-02T09:40:15;11.20;82.30
1347;DHT22;667;48.796;9.480;2024-03-02T09:42:41;11.40;81.30
1347;DHT22;667;48.796;9.480;2024-03-02T09:45:09;11.50;80.40
1347;DHT22;667;48.796;9.480;2024-03-02T09:47:34;11.70;79.90
1347;DHT22;667;48.796;9.480;2024-03-02T09:50:00;11.90;79.30
1347;DHT22;667;48.796;9.480;2024-03-02T09:52:26;12.00;78.50
1347;DHT22;667;48.796;9.480;2024-03-02T09:54:52;12.20;78.40
1347;DHT22;667;48.796;9.480;2024-03-02T09:57:17;12.40;78.30
1347;DHT22;667;48.796;9.480;2024-03-02T09:59:43;12.60;78.30
1347;DHT22;667;48.796;9.480;2024-03-02T10:02:10;12.90;77.90
1347;DHT22;667;48.796;9.480;2024-03-02T10:04:36;13.10;76.60
1347;DHT22;667;48.796;9.480;2024-03-02T10:07:11;13.20;74.90
1347;DHT22;667;48.796;9.480;2024-03-02T10:09:37;13.40;74.50
1347;DHT22;667;48.796;9.480;2024-03-02T10:12:07;13.50;74.50
1347;DHT22;667;48.796;9.480;2024-03-02T10:14:33;13.70;74.20
1347;DHT22;667;48.796;9.480;2024-03-02T10:17:10;13.90;73.60
1347;DHT22;667;48.796;9.480;2024-03-02T10:19:36;14.10;71.90
1347;DHT22;667;48.796;9.480;2024-03-02T10:22:07;14.30;70.30
1347;DHT22;667;48.796;9.480;2024-03-02T10:24:43;14.40;69.60
1347;DHT22;667;48.796;9.480;2024-03-02T10:27:27;14.60;69.10
1347;DHT22;667;48.796;9.480;2024-03-02T10:29:52;14.80;68.30
1347;DHT22;667;48.796;9.480;2024-03-02T10:32:22;15.00;68.10
1347;DHT22;667;48.796;9.480;2024-03-02T10:34:48;15.20;66.60
1347;DHT22;667;48.796;9.480;2024-03-02T10:37:15;15.40;65.60
1347;DHT22;667;48.796;9.480;2024-03-02T10:39:42;15.60;64.80
1347;DHT22;667;48.796;9.480;2024-03-02T10:42:08;15.80;64.50
1347;DHT22;667;48.796;9.480;2024-03-02T10:44:34;16.00;63.20
1347;DHT22;667;48.796;9.480;2024-03-02T10:47:02;16.10;61.40
1347;DHT22;667;48.796;9.480;2024-03-02T10:49:32;16.20;60.60
1347;DHT22;667;48.796;9.480;2024-03-02T10:52:01;16.40;60.20
1347;DHT22;667;48.796;9.480;2024-03-02T10:54:27;16.50;59.50
1347;DHT22;667;48.796;9.480;2024-03-02T10:56:58;16.60;59.10
1347;DHT22;667;48.796;9.480;2024-03-02T11:02:00;16.80;56.80
1347;DHT22;667;48.796;9.480;2024-03-02T11:04:28;16.90;56.40
1347;DHT22;667;48.796;9.480;2024-03-02T11:07:08;17.00;55.90
1347;DHT22;667;48.796;9.480;2024-03-02T11:09:38;17.00;56.80
1347;DHT22;667;48.796;9.480;2024-03-02T11:12:12;17.10;57.10
1347;DHT22;667;48.796;9.480;2024-03-02T11:14:41;17.20;56.20
1347;DHT22;667;48.796;9.480;2024-03-02T11:17:11;17.30;55.30
1347;DHT22;667;48.796;9.480;2024-03-02T11:19:38;17.30;55.30
1347;DHT22;667;48.796;9.480;2024-03-02T11:22:05;17.30;54.80
1347;DHT22;667;48.796;9.480;2024-03-02T11:24:31;17.30;54.80
1347;DHT22;667;48.796;9.480;2024-03-02T11:27:03;17.40;54.50
1347;DHT22;667;48.796;9.480;2024-03-02T11:32:21;17.40;53.90
1347;DHT22;667;48.796;9.480;2024-03-02T11:34:50;17.40;53.30
1347;DHT22;667;48.796;9.480;2024-03-02T11:37:17;17.30;53.50
1347;DHT22;667;48.796;9.480;2024-03-02T11:39:48;17.40;54.00
1347;DHT22;667;48.796;9.480;2024-03-02T11:42:15;17.40;52.60
1347;DHT22;667;48.796;9.480;2024-03-02T11:44:47;17.40;52.80
1347;DHT22;667;48.796;9.480;2024-03-02T11:47:15;17.40;52.90
1347;DHT22;667;48.796;9.480;2024-03-02T11:49:49;17.40;53.10
1347;DHT22;667;48.796;9.480;2024-03-02T11:52:16;17.30;53.40
1347;DHT22;667;48.796;9.480;2024-03-02T11:54:44;17.40;54.10
1347;DHT22;667;48.796;9.480;2024-03-02T11:57:18;17.40;53.20
1347;DHT22;667;48.796;9.480;2024-03-02T11:59:45;17.40;53.30
1347;DHT22;667;48.796;9.480;2024-03-02T12:02:18;17.40;53.10
1347;DHT22;667;48.796;9.480;2024-03-02T12:04:44;17.40;52.80
1347;DHT22;667;48.796;9.480;2024-03-02T12:07:13;17.30;53.00
1347;DHT22;667;48.796;9.480;2024-03-02T12:09:43;17.30;53.20
1347;DHT22;667;48.796;9.480;2024-03-02T12:12:09;17.30;54.00
1347;DHT22;667;48.796;9.480;2024-03-02T12:14:37;17.30;54.40
1347;DHT22;667;48.796;9.480;2024-03-02T12:17:04;17.30;53.80
1347;DHT22;667;48.796;9.480;2024-03-02T12:19:31;17.30;53.60
1347;DHT22;667;48.796;9.480;2024-03-02T12:21:57;17.30;53.90
1347;DHT22;667;48.796;9.480;2024-03-02T12:24:24;17.30;53.60
1347;DHT22;667;48.796;9.480;2024-03-02T12:26:50;17.30;53.40
1347;DHT22;667;48.796;9.480;2024-03-02T12:29:19;17.30;53.30
1347;DHT22;667;48.796;9.480;2024-03-02T12:31:45;17.30;52.30
1347;DHT22;667;48.796;9.480;2024-03-02T12:34:13;17.30;52.80
1347;DHT22;667;48.796;9.480;2024-03-02T12:36:39;17.20;52.60
1347;DHT22;667;48.796;9.480;2024-03-02T12:39:09;17.20;51.80
1347;DHT22;667;48.796;9.480;2024-03-02T12:41:38;17.20;51.80
1347;DHT22;667;48.796;9.480;2024-03-02T12:44:05;17.10;51.90
1347;DHT22;667;48.796;9.480;2024-03-02T12:46:31;17.10;51.50
1347;DHT22;667;48.796;9.480;2024-03-02T12:48:57;17.10;51.20
1347;DHT22;667;48.796;9.480;2024-03-02T12:51:35;17.00;50.80
1347;DHT22;667;48.796;9.480;2024-03-02T12:54:01;17.00;51.30
1347;DHT22;667;48.796;9.480;2024-03-02T12:56:27;17.00;50.70
1347;DHT22;667;48.796;9.480;2024-03-02T12:58:56;17.10;51.40
1347;DHT22;667;48.796;9.480;2024-03-02T13:01:21;17.10;51.20
1347;DHT22;667;48.796;9.480;2024-03-02T13:03:51;17.00;51.00
1347;DHT22;667;48.796;9.480;2024-03-02T13:06:17;17.10;51.20
1347;DHT22;667;48.796;9.480;2024-03-02T13:08:44;17.10;50.90
1347;DHT22;667;48.796;9.480;2024-03-02T13:11:10;17.20;50.40
1347;DHT22;667;48.796;9.480;2024-03-02T13:13:36;17.20;50.40
1347;DHT22;667;48.796;9.480;2024-03-02T13:16:01;17.20;50.40
1347;DHT22;667;48.796;9.480;2024-03-02T13:18:28;17.20;49.10
1347;DHT22;667;48.796;9.480;2024-03-02T13:20:54;17.20;47.90
1347;DHT22;667;48.796;9.480;2024-03-02T13:23:21;17.10;47.80
1347;DHT22;667;48.796;9.480;2024-03-02T13:25:47;17.10;47.60
1347;DHT22;667;48.796;9.480;2024-03-02T13:28:13;17.20;46.60
1347;DHT22;667;48.796;9.480;2024-03-02T13:30:38;17.20;45.90
1347;DHT22;667;48.796;9.480;2024-03-02T13:33:04;17.10;45.90
1347;DHT22;667;48.796;9.480;2024-03-02T13:35:30;17.10;46.00
1347;DHT22;667;48.796;9.480;2024-03-02T13:37:55;17.10;45.10
1347;DHT22;667;48.796;9.480;2024-03-02T13:40:24;17.20;44.40
1347;DHT22;667;48.796;9.480;2024-03-02T13:42:50;17.20;43.50
1347;DHT22;667;48.796;9.480;2024-03-02T13:45:17;17.20;43.70
1347;DHT22;667;48.796;9.480;2024-03-02T13:47:43;17.10;44.10
1347;DHT22;667;48.796;9.480;2024-03-02T13:50:09;17.10;44.60
1347;DHT22;667;48.796;9.480;2024-03-02T13:52:34;17.10;44.20
1347;DHT22;667;48.796;9.480;2024-03-02T13:55:00;17.10;44.00
1347;DHT22;667;48.796;9.480;2024-03-02T13:57:26;17.10;44.10
1347;DHT22;667;48.796;9.480;2024-03-02T13:59:51;17.10;44.10
1347;DHT22;667;48.796;9.480;2024-03-02T14:02:17;17.10;43.80
1347;DHT22;667;48.796;9.480;2024-03-02T14:04:43;17.10;44.00
1347;DHT22;667;48.796;9.480;2024-03-02T14:07:09;17.10;44.20
1347;DHT22;667;48.796;9.480;2024-03-02T14:09:37;17.10;45.30
1347;DHT22;667;48.796;9.480;2024-03-02T14:12:03;17.10;46.30
1347;DHT22;667;48.796;9.480;2024-03-02T14:14:29;17.10;45.50
1347;DHT22;667;48.796;9.480;2024-03-02T14:16:55;17.10;45.20
1347;DHT22;667;48.796;9.480;2024-03-02T14:19:31;17.10;45.50
1347;DHT22;667;48.796;9.480;2024-03-02T14:21:56;17.00;45.50
1347;DHT22;667;48.796;9.480;2024-03-02T14:24:22;17.00;45.80
1347;DHT22;667;48.796;9.480;2024-03-02T14:26:52;17.00;46.70
1347;DHT22;667;48.796;9.480;2024-03-02T14:29:18;17.00;46.60
1347;DHT22;667;48.796;9.480;2024-03-02T14:31:43;17.00;47.00
1347;DHT22;667;48.796;9.480;2024-03-02T14:34:09;17.00;48.60
1347;DHT22;667;48.796;9.480;2024-03-02T14:36:35;17.00;49.10
1347;DHT22;667;48.796;9.480;2024-03-02T14:39:00;17.00;49.60
1347;DHT22;667;48.796;9.480;2024-03-02T14:41:26;17.00;49.70
1347;DHT22;667;48.796;9.480;2024-03-02T14:43:52;16.90;49.60
1347;DHT22;667;48.796;9.480;2024-03-02T14:46:17;16.90;49.50
1347;DHT22;667;48.796;9.480;2024-03-02T14:48:43;16.80;49.60
1347;DHT22;667;48.796;9.480;2024-03-02T14:51:11;16.80;49.30
1347;DHT22;667;48.796;9.480;2024-03-02T14:53:37;16.80;48.60
1347;DHT22;667;48.796;9.480;2024-03-02T14:56:04;16.70;48.40
1347;DHT22;667;48.796;9.480;2024-03-02T14:58:29;16.70;48.00
1347;DHT22;667;48.796;9.480;2024-03-02T15:00:55;16.60;48.90
1347;DHT22;667;48.796;9.480;2024-03-02T15:03:21;16.60;49.70
1347;DHT22;667;48.796;9.480;2024-03-02T15:05:46;16.60;50.70
1347;DHT22;667;48.796;9.480;2024-03-02T15:08:13;16.60;51.50
1347;DHT22;667;48.796;9.480;2024-03-02T15:10:38;16.60;52.20
1347;DHT22;667;48.796;9.480;2024-03-02T15:13:04;16.50;52.60
1347;DHT22;667;48.796;9.480;2024-03-02T15:15:30;16.50;53.00
1347;DHT22;667;48.796;9.480;2024-03-02T15:17:55;16.50;53.10
1347;DHT22;667;48.796;9.480;2024-03-02T15:20:21;16.50;53.30
1347;DHT22;667;48.796;9.480;2024-03-02T15:22:47;16.40;53.40
1347;DHT22;667;48.796;9.480;2024-03-02T15:25:12;16.40;53.30
1347;DHT22;667;48.796;9.480;2024-03-02T15:27:38;16.40;53.10
1347;DHT22;667;48.796;9.480;2024-03-02T15:30:05;16.40;52.70
1347;DHT22;667;48.796;9.480;2024-03-02T15:32:32;16.30;52.80
1347;DHT22;667;48.796;9.480;2024-03-02T15:34:59;16.30;52.30
1347;DHT22;667;48.796;9.480;2024-03-02T15:37:25;16.30;52.20
1347;DHT22;667;48.796;9.480;2024-03-02T15:39:50;16.20;52.20
1347;DHT22;667;48.796;9.480;2024-03-02T15:42:16;16.20;52.70
1347;DHT22;667;48.796;9.480;2024-03-02T15:44:43;16.20;53.10
1347;DHT22;667;48.796;9.480;2024-03-02T15:47:09;16.10;53.00
1347;DHT22;667;48.796;9.480;2024-03-02T15:49:34;16.00;53.30
1347;DHT22;667;48.796;9.480;2024-03-02T15:52:00;16.00;53.60
1347;DHT22;667;48.796;9.480;2024-03-02T15:54:27;15.90;54.00
1347;DHT22;667;48.796;9.480;2024-03-02T15:56:53;15.90;54.30
1347;DHT22;667;48.796;9.480;2024-03-02T15:59:18;15.80;54.40
1347;DHT22;667;48.796;9.480;2024-03-02T16:01:44;15.70;54.50
1347;DHT22;667;48.796;9.480;2024-03-02T16:04:10;15.70;54.80
1347;DHT22;667;48.796;9.480;2024-03-02T16:06:36;15.60;55.10
1347;DHT22;667;48.796;9.480;2024-03-02T16:09:01;15.60;55.40
1347;DHT22;667;48.796;9.480;2024-03-02T16:11:29;15.60;55.80
1347;DHT22;667;48.796;9.480;2024-03-02T16:13:54;15.50;56.00
1347;DHT22;667;48.796;9.480;2024-03-02T16:16:20;15.50;56.20
1347;DHT22;667;48.796;9.480;2024-03-02T16:18:46;15.40;56.40
1347;DHT22;667;48.796;9.480;2024-03-02T16:21:11;15.40;56.70
1347;DHT22;667;48.796;9.480;2024-03-02T16:23:37;15.30;56.90
1347;DHT22;667;48.796;9.480;2024-03-02T16:26:03;15.30;57.20
1347;DHT22;667;48.796;9.480;2024-03-02T16:28:28;15.20;57.40
1347;DHT22;667;48.796;9.480;2024-03-02T16:30:54;15.20;57.70
1347;DHT22;667;48.796;9.480;2024-03-02T16:33:20;15.10;57.90